createdAt,value
2018-03-19T00:00:00.509Z,85.80
2018-03-19T00:05:03.802Z,86.00
2018-03-19T00:10:07.081Z,86.20
2018-03-19T00:15:10.446Z,86.10
2018-03-19T00:20:13.708Z,86.40
2018-03-19T00:25:16.956Z,86.20
2018-03-19T00:30:20.189Z,85.90
2018-03-19T00:35:23.469Z,86.10
2018-03-19T00:40:26.739Z,86.20
2018-03-19T00:45:30.363Z,86.00
2018-03-19T00:50:33.620Z,86.00
2018-03-19T00:55:36.844Z,86.10
2018-03-19T01:00:40.094Z,86.00
2018-03-19T01:05:43.353Z,86.10
2018-03-19T01:10:46.573Z,86.30
2018-03-19T01:15:50.183Z,86.20
2018-03-19T01:20:53.887Z,86.40
2018-03-19T01:25:57.114Z,86.40
2018-03-19T01:31:00.753Z,86.00
2018-03-19T01:36:03.981Z,86.00
2018-03-19T01:41:07.295Z,86.50
2018-03-19T01:46:10.526Z,86.30
2018-03-19T01:51:15.342Z,86.10
2018-03-19T01:56:18.579Z,85.90
2018-03-19T02:01:22.206Z,86.50
2018-03-19T02:06:25.811Z,86.20
2018-03-19T02:11:29.032Z,86.20
2018-03-19T02:16:32.651Z,86.60
2018-03-19T02:21:36.316Z,86.30
2018-03-19T02:26:39.555Z,86.30
2018-03-19T02:31:43.192Z,85.90
2018-03-19T02:36:46.419Z,85.90
2018-03-19T02:41:49.646Z,86.10
2018-03-19T02:46:52.888Z,85.40
2018-03-19T02:51:56.207Z,85.10
2018-03-19T02:56:59.398Z,85.20
2018-03-19T03:02:02.628Z,84.80
2018-03-19T03:07:05.853Z,85.30
2018-03-19T03:12:09.068Z,84.50
2018-03-19T03:17:12.290Z,84.30
2018-03-19T03:22:15.504Z,84.00
2018-03-19T03:27:18.724Z,83.70
2018-03-19T03:32:22.038Z,83.90
2018-03-19T03:37:25.247Z,84.50
2018-03-19T03:42:28.467Z,84.60
2018-03-19T03:47:32.135Z,84.60
2018-03-19T03:52:35.348Z,84.60
2018-03-19T03:57:38.572Z,84.30
2018-03-19T04:02:41.881Z,85.10
2018-03-19T04:07:45.130Z,85.10
2018-03-19T04:12:48.358Z,85.70
2018-03-19T04:17:51.686Z,85.30
2018-03-19T04:22:54.912Z,85.20
2018-03-19T04:27:58.536Z,85.70
2018-03-19T04:33:02.266Z,85.70
2018-03-19T04:38:05.545Z,85.70
2018-03-19T04:43:08.768Z,85.10
2018-03-19T04:48:12.492Z,84.90
2018-03-19T04:53:16.492Z,84.60
2018-03-19T04:58:20.312Z,84.80
2018-03-19T05:03:23.539Z,84.90
2018-03-19T05:08:26.809Z,85.30
2018-03-19T05:13:30.051Z,85.30
2018-03-19T05:18:33.747Z,84.80
2018-03-19T05:23:36.998Z,84.80
2018-03-19T05:28:40.336Z,84.90
2018-03-19T05:33:43.576Z,84.40
2018-03-19T05:38:47.216Z,85.10
2018-03-19T05:43:50.427Z,85.20
2018-03-19T05:48:53.669Z,85.40
2018-03-19T05:53:56.887Z,85.20
2018-03-19T05:59:00.129Z,84.50
2018-03-19T06:04:03.348Z,84.20
2018-03-19T06:09:06.610Z,84.50
2018-03-19T06:14:09.849Z,85.00
2018-03-19T06:19:13.067Z,84.90
2018-03-19T06:24:16.291Z,84.30
2018-03-19T06:29:19.540Z,84.10
2018-03-19T06:34:22.820Z,85.00
2018-03-19T06:39:27.159Z,85.10
2018-03-19T06:44:30.387Z,83.90
2018-03-19T06:49:33.664Z,83.60
2018-03-19T06:54:36.901Z,84.40
2018-03-19T06:59:40.141Z,83.90
2018-03-19T07:04:43.369Z,83.80
2018-03-19T07:09:47.736Z,84.20
2018-03-19T07:14:50.965Z,83.90
2018-03-19T07:19:54.573Z,84.20
2018-03-19T07:24:58.188Z,83.90
2018-03-19T07:30:01.815Z,83.90
2018-03-19T07:35:05.436Z,84.00
2018-03-19T07:40:08.730Z,84.00
2018-03-19T07:45:12.022Z,84.20
2018-03-19T07:50:15.253Z,84.30
2018-03-19T07:55:18.535Z,83.50
2018-03-19T08:00:21.792Z,83.50
2018-03-19T08:05:25.150Z,83.40
2018-03-19T08:10:28.364Z,83.40
2018-03-19T08:15:31.982Z,82.60
2018-03-19T08:20:35.280Z,82.60
2018-03-19T08:25:38.910Z,82.30
2018-03-19T08:30:42.534Z,82.20
2018-03-19T08:35:45.776Z,82.20
2018-03-19T08:40:48.991Z,82.00
2018-03-19T08:45:52.228Z,82.80
2018-03-19T08:50:56.368Z,81.80
2018-03-19T08:55:59.991Z,81.90
2018-03-19T09:01:03.612Z,81.30
2018-03-19T09:06:06.840Z,81.30
2018-03-19T09:11:10.335Z,81.50
2018-03-19T09:16:14.037Z,81.80
2018-03-19T09:21:17.951Z,81.00
2018-03-19T09:26:22.552Z,80.60
2018-03-19T09:31:25.804Z,80.60
2018-03-19T09:36:29.414Z,80.50
2018-03-19T09:41:33.057Z,80.20
2018-03-19T09:46:36.331Z,80.20
2018-03-19T09:51:40.073Z,79.20
2018-03-19T09:56:45.715Z,79.20
2018-03-19T10:01:49.114Z,79.00
2018-03-19T10:06:54.183Z,78.90
2018-03-19T10:11:59.013Z,78.10
2018-03-19T10:17:02.716Z,77.30
2018-03-19T10:22:05.951Z,77.30
2018-03-19T10:27:09.191Z,76.70
2018-03-19T10:32:12.434Z,76.90
2018-03-19T10:37:15.844Z,77.80
2018-03-19T10:42:19.635Z,77.20
2018-03-19T10:47:23.599Z,77.20
2018-03-19T10:52:28.287Z,77.50
2018-03-19T10:57:31.521Z,77.50
2018-03-19T11:02:40.461Z,77.50
2018-03-19T11:13:22.414Z,78.20
2018-03-19T11:18:25.635Z,77.50
2018-03-19T11:23:29.249Z,76.90
2018-03-19T11:28:32.993Z,77.00
2018-03-19T11:33:36.669Z,76.70
2018-03-19T11:38:39.970Z,76.70
2018-03-19T11:43:43.294Z,77.10
2018-03-19T11:48:47.001Z,77.70
2018-03-19T11:53:50.244Z,77.70
2018-03-19T11:58:53.517Z,78.00
2018-03-19T12:03:56.740Z,77.60
2018-03-19T12:08:59.967Z,78.30
2018-03-19T12:14:03.209Z,77.90
2018-03-19T12:19:07.012Z,77.80
2018-03-19T12:24:10.367Z,78.00
2018-03-19T12:29:14.330Z,78.40
2018-03-19T12:34:17.677Z,78.40
2018-03-19T12:39:21.511Z,77.10
2018-03-19T12:44:24.731Z,77.20
2018-03-19T12:49:28.404Z,76.00
2018-03-19T12:54:31.622Z,76.00
2018-03-19T12:59:34.952Z,73.70
2018-03-19T13:04:38.161Z,73.80
2018-03-19T13:09:41.832Z,75.90
2018-03-19T13:14:45.072Z,75.90
2018-03-19T13:19:48.400Z,76.50
2018-03-19T13:30:58.646Z,76.30
2018-03-19T13:36:02.097Z,76.70
2018-03-19T13:41:05.321Z,77.00
2018-03-19T13:46:09.018Z,78.00
2018-03-19T13:51:12.261Z,78.00
2018-03-19T13:56:15.531Z,78.40
2018-03-19T14:01:18.740Z,78.10
2018-03-19T14:06:22.004Z,77.40
2018-03-19T14:11:25.243Z,77.10
2018-03-19T14:16:28.469Z,77.20
2018-03-19T14:21:32.207Z,77.20
2018-03-19T14:26:35.439Z,77.20
2018-03-19T14:31:38.683Z,78.00
2018-03-19T14:36:42.413Z,77.90
2018-03-19T14:41:46.162Z,78.30
2018-03-19T14:46:49.355Z,78.30
2018-03-19T14:51:52.610Z,78.30
2018-03-19T14:56:55.861Z,78.40
2018-03-19T15:01:59.126Z,78.50
2018-03-19T15:07:02.561Z,78.50
2018-03-19T15:12:06.270Z,78.30
2018-03-19T15:17:09.923Z,77.90
2018-03-19T15:22:13.169Z,77.90
2018-03-19T15:27:16.395Z,78.00
2018-03-19T15:32:19.713Z,78.20
2018-03-19T15:37:23.331Z,78.30
2018-03-19T15:42:27.035Z,79.50
2018-03-19T15:47:30.266Z,79.50
2018-03-19T15:52:33.555Z,79.10
2018-03-19T15:57:37.228Z,79.50
2018-03-19T16:02:40.478Z,79.50
2018-03-19T16:07:43.773Z,79.20
2018-03-19T16:12:46.995Z,80.00
2018-03-19T16:17:50.221Z,79.90
2018-03-19T16:22:53.593Z,81.30
2018-03-19T16:27:57.206Z,80.80
2018-03-19T16:33:00.840Z,81.80
2018-03-19T16:38:04.057Z,81.80
2018-03-19T16:43:07.275Z,83.40
2018-03-19T16:48:10.515Z,83.00
2018-03-19T16:53:14.165Z,82.70
2018-03-19T16:58:17.395Z,82.70
2018-03-19T17:03:20.637Z,84.20
2018-03-19T17:08:24.242Z,84.10
2018-03-19T17:13:27.942Z,84.20
2018-03-19T17:18:31.655Z,84.30
2018-03-19T17:23:35.483Z,84.60
2018-03-19T17:28:39.087Z,83.80
2018-03-19T17:33:42.814Z,84.40
2018-03-19T17:38:46.092Z,84.40
2018-03-19T17:43:49.790Z,84.30
2018-03-19T17:48:55.011Z,84.30
2018-03-19T17:54:00.385Z,84.50
2018-03-19T17:59:03.744Z,83.60
2018-03-19T18:04:06.968Z,83.40
2018-03-19T18:09:10.376Z,83.20
2018-03-19T18:14:13.692Z,83.40
2018-03-19T18:19:16.919Z,82.70
2018-03-19T18:24:20.557Z,83.40
2018-03-19T18:29:24.831Z,83.40
2018-03-19T18:34:28.084Z,83.10
2018-03-19T18:39:31.354Z,83.00
2018-03-19T18:44:34.970Z,82.40
2018-03-19T18:49:38.671Z,82.90
2018-03-19T18:54:41.905Z,82.90
2018-03-19T18:59:47.033Z,81.90
2018-03-19T19:04:50.674Z,82.50
2018-03-19T19:09:54.954Z,82.50
2018-03-19T19:14:58.167Z,81.70
2018-03-19T19:20:01.877Z,81.90
2018-03-19T19:25:05.562Z,81.60
2018-03-19T19:30:12.168Z,81.60
2018-03-19T19:35:18.739Z,81.90
2018-03-19T19:40:23.944Z,81.90
2018-03-19T19:45:31.156Z,81.60
2018-03-19T19:50:36.200Z,81.60
2018-03-19T19:55:41.124Z,81.90
2018-03-19T20:00:44.910Z,81.90
2018-03-19T20:05:51.227Z,82.40
2018-03-19T20:10:57.425Z,82.40
2018-03-19T20:16:05.576Z,82.80
2018-03-19T20:21:09.611Z,82.50
2018-03-19T20:26:13.792Z,82.50
2018-03-19T20:31:19.981Z,82.90
2018-03-19T20:36:24.799Z,82.90
2018-03-19T20:41:31.756Z,82.30
2018-03-19T20:46:37.171Z,82.90
2018-03-19T20:51:41.678Z,82.90
2018-03-19T20:56:46.605Z,83.10
2018-03-19T21:01:51.201Z,83.00
2018-03-19T21:06:57.772Z,83.00
2018-03-19T21:12:02.472Z,83.20
2018-03-19T21:17:06.996Z,83.10
2018-03-19T21:22:10.705Z,83.40
2018-03-19T21:27:14.626Z,82.90
2018-03-19T21:32:18.244Z,82.90
2018-03-19T21:37:22.024Z,82.40
2018-03-19T21:42:25.653Z,82.40
2018-03-19T21:47:30.144Z,82.40
2018-03-19T21:52:34.189Z,82.40
2018-03-19T21:57:37.812Z,82.80
2018-03-19T22:02:41.553Z,83.00
2018-03-19T22:07:45.181Z,83.00
2018-03-19T22:12:48.495Z,82.40
2018-03-19T22:17:51.871Z,83.00
2018-03-19T22:22:55.129Z,82.20
2018-03-19T22:27:58.475Z,82.70
2018-03-19T22:33:01.853Z,82.20
2018-03-19T22:38:05.574Z,82.20
2018-03-19T22:43:09.585Z,81.80
2018-03-19T22:48:12.970Z,81.80
2018-03-19T22:53:16.357Z,81.70
2018-03-19T22:58:19.745Z,81.90
2018-03-19T23:03:24.179Z,82.20
2018-03-19T23:08:27.431Z,81.90
2018-03-19T23:13:30.687Z,82.00
2018-03-19T23:18:33.969Z,82.20
2018-03-19T23:23:37.232Z,82.20
2018-03-19T23:28:40.950Z,82.00
2018-03-19T23:33:44.556Z,82.00
2018-03-19T23:38:48.067Z,82.30
2018-03-19T23:43:51.714Z,82.60
2018-03-19T23:54:31.061Z,82.90
2018-03-19T23:59:34.401Z,82.90
